CheckWX is a tool to help pilots better visualize weather data.  It is not intended as a substitute for an official pre-flight weather briefing.

14:31:45 UTC

LLBG METAR
Ben Gurion International Airport
Tel Aviv, Israel
Current

42 mins ago

LLBG 161350Z 29009KT CAVOK 31/21 Q1007 NOSIG
Observed
Jul-16 @ 13:50 UTC
Wind
  • 290° at 9 KTS
Visibility
10,000+ meters
Flight Rules
VFR
Cloud Levels
  • Clear skies
Temperature
31°C / 88°F
Dewpoint
21°C / 70°F
Heat Index
34°C / 93°F
Humidity
55%
Altimeter
29.73" Hg
Pressure
1006.92 hPa
Previous

1 hour ago

LLBG 161320Z 28008KT 250V320 CAVOK 31/20 Q1007 NOSIG
Observed
Jul-16 @ 13:20 UTC
Wind
  • 280° at 8 KTS
Visibility
10,000+ meters
Flight Rules
VFR
Cloud Levels
  • Clear skies
Temperature
31°C / 88°F
Dewpoint
20°C / 68°F
Heat Index
33°C / 92°F
Humidity
52%
Altimeter
29.73" Hg
Pressure
1006.92 hPa
Previous

2 hours ago

LLBG 161250Z 29009KT 260V320 CAVOK 31/20 Q1007 NOSIG
Observed
Jul-16 @ 12:50 UTC
Wind
  • 290° at 9 KTS
Visibility
10,000+ meters
Flight Rules
VFR
Cloud Levels
  • Clear skies
Temperature
31°C / 88°F
Dewpoint
20°C / 68°F
Heat Index
33°C / 92°F
Humidity
52%
Altimeter
29.73" Hg
Pressure
1006.92 hPa